sensor_id;sensor_type;location;lat;lon;timestamp;temperature;humidity
32865;DHT22;19219;44.500;11.188;2024-02-23T00:00:41;14.40;99.90
32865;DHT22;19219;44.500;11.188;2024-02-23T00:03:07;14.40;99.90
32865;DHT22;19219;44.500;11.188;2024-02-23T00:05:33;14.50;99.90
32865;DHT22;19219;44.500;11.188;2024-02-23T00:07:59;14.50;99.90
32865;DHT22;19219;44.500;11.188;2024-02-23T00:10:25;14.50;99.90
32865;DHT22;19219;44.500;11.188;2024-02-23T00:12:51;14.50;99.90
32865;DHT22;19219;44.500;11.188;2024-02-23T00:15:17;14.50;99.90
32865;DHT22;19219;44.500;11.188;2024-02-23T00:17:42;14.50;99.90
32865;DHT22;19219;44.500;11.188;2024-02-23T00:20:09;14.50;99.90
32865;DHT22;19219;44.500;11.188;2024-02-23T00:22:38;14.60;99.90
32865;DHT22;19219;44.500;11.188;2024-02-23T00:25:04;14.60;99.90
32865;DHT22;19219;44.500;11.188;2024-02-23T00:27:30;14.60;99.90
32865;DHT22;19219;44.500;11.188;2024-02-23T00:29:56;14.60;99.90
32865;DHT22;19219;44.500;11.188;2024-02-23T00:32:21;14.60;99.90
32865;DHT22;19219;44.500;11.188;2024-02-23T00:34:47;14.70;99.90
32865;DHT22;19219;44.500;11.188;2024-02-23T00:37:13;14.70;99.90
32865;DHT22;19219;44.500;11.188;2024-02-23T00:39:38;14.70;99.90
32865;DHT22;19219;44.500;11.188;2024-02-23T00:42:04;14.70;99.90
32865;DHT22;19219;44.500;11.188;2024-02-23T00:44:30;14.70;99.90
32865;DHT22;19219;44.500;11.188;2024-02-23T00:46:56;14.60;99.90
32865;DHT22;19219;44.500;11.188;2024-02-23T00:49:23;14.70;99.90
32865;DHT22;19219;44.500;11.188;2024-02-23T00:51:49;14.70;99.90
32865;DHT22;19219;44.500;11.188;2024-02-23T00:54:15;14.70;99.90
32865;DHT22;19219;44.500;11.188;2024-02-23T00:56:40;14.70;99.90
32865;DHT22;19219;44.500;11.188;2024-02-23T00:59:06;14.70;99.90
32865;DHT22;19219;44.500;11.188;2024-02-23T01:01:32;14.70;99.90
32865;DHT22;19219;44.500;11.188;2024-02-23T01:03:57;14.60;99.90
32865;DHT22;19219;44.500;11.188;2024-02-23T01:06:23;14.60;99.90
32865;DHT22;19219;44.500;11.188;2024-02-23T01:08:50;14.70;99.90
32865;DHT22;19219;44.500;11.188;2024-02-23T01:11:17;14.70;99.90
32865;DHT22;19219;44.500;11.188;2024-02-23T01:13:43;14.70;99.90
32865;DHT22;19219;44.500;11.188;2024-02-23T01:16:09;14.70;99.90
32865;DHT22;19219;44.500;11.188;2024-02-23T01:18:34;14.70;99.90
32865;DHT22;19219;44.500;11.188;2024-02-23T01:21:00;14.60;99.90
32865;DHT22;19219;44.500;11.188;2024-02-23T01:23:26;14.70;99.90
32865;DHT22;19219;44.500;11.188;2024-02-23T01:25:52;14.60;99.90
32865;DHT22;19219;44.500;11.188;2024-02-23T01:28:17;14.60;99.90
32865;DHT22;19219;44.500;11.188;2024-02-23T01:30:43;14.60;99.90
32865;DHT22;19219;44.500;11.188;2024-02-23T01:33:09;14.60;99.90
32865;DHT22;19219;44.500;11.188;2024-02-23T01:35:34;14.70;99.90
32865;DHT22;19219;44.500;11.188;2024-02-23T01:38:02;14.60;99.90
32865;DHT22;19219;44.500;11.188;2024-02-23T01:40:28;14.60;99.90
32865;DHT22;19219;44.500;11.188;2024-02-23T01:43:06;14.70;99.90
32865;DHT22;19219;44.500;11.188;2024-02-23T01:45:32;14.60;99.90
32865;DHT22;19219;44.500;11.188;2024-02-23T01:48:00;14.60;99.90
32865;DHT22;19219;44.500;11.188;2024-02-23T01:50:26;14.60;99.90
32865;DHT22;19219;44.500;11.188;2024-02-23T01:52:53;14.60;99.90
32865;DHT22;19219;44.500;11.188;2024-02-23T01:55:20;14.60;99.90
32865;DHT22;19219;44.500;11.188;2024-02-23T01:57:47;14.70;99.90
32865;DHT22;19219;44.500;11.188;2024-02-23T02:00:16;14.70;99.90
32865;DHT22;19219;44.500;11.188;2024-02-23T02:02:43;14.60;99.90
32865;DHT22;19219;44.500;11.188;2024-02-23T02:05:11;14.60;99.90
32865;DHT22;19219;44.500;11.188;2024-02-23T02:07:39;14.70;99.90
32865;DHT22;19219;44.500;11.188;2024-02-23T02:10:08;14.70;99.90
32865;DHT22;19219;44.500;11.188;2024-02-23T02:12:35;14.70;99.90
32865;DHT22;19219;44.500;11.188;2024-02-23T02:15:04;14.70;99.90
32865;DHT22;19219;44.500;11.188;2024-02-23T02:17:30;14.60;99.90
32865;DHT22;19219;44.500;11.188;2024-02-23T02:19:58;14.50;99.90
32865;DHT22;19219;44.500;11.188;2024-02-23T02:22:24;14.50;99.90
32865;DHT22;19219;44.500;11.188;2024-02-23T02:24:50;14.50;99.90
32865;DHT22;19219;44.500;11.188;2024-02-23T02:27:15;14.60;99.90
32865;DHT22;19219;44.500;11.188;2024-02-23T02:29:41;14.70;99.90
32865;DHT22;19219;44.500;11.188;2024-02-23T02:32:07;14.60;99.90
32865;DHT22;19219;44.500;11.188;2024-02-23T02:34:33;14.60;99.90
32865;DHT22;19219;44.500;11.188;2024-02-23T02:37:00;14.60;99.90
32865;DHT22;19219;44.500;11.188;2024-02-23T02:39:26;14.50;99.90
32865;DHT22;19219;44.500;11.188;2024-02-23T02:41:52;14.60;99.90
32865;DHT22;19219;44.500;11.188;2024-02-23T02:44:18;14.50;99.90
32865;DHT22;19219;44.500;11.188;2024-02-23T02:46:43;14.50;99.90
32865;DHT22;19219;44.500;11.188;2024-02-23T02:49:11;14.50;99.90
32865;DHT22;19219;44.500;11.188;2024-02-23T02:51:36;14.50;99.90
32865;DHT22;19219;44.500;11.188;2024-02-23T02:54:02;14.50;99.90
32865;DHT22;19219;44.500;11.188;2024-02-23T02:56:28;14.50;99.90
32865;DHT22;19219;44.500;11.188;2024-02-23T02:58:54;14.50;99.90
32865;DHT22;19219;44.500;11.188;2024-02-23T03:01:19;14.40;99.90
32865;DHT22;19219;44.500;11.188;2024-02-23T03:03:45;14.40;99.90
32865;DHT22;19219;44.500;11.188;2024-02-23T03:06:11;14.40;99.90
32865;DHT22;19219;44.500;11.188;2024-02-23T03:08:36;14.40;99.90
32865;DHT22;19219;44.500;11.188;2024-02-23T03:11:02;14.40;99.90
32865;DHT22;19219;44.500;11.188;2024-02-23T03:13:28;14.40;99.90
32865;DHT22;19219;44.500;11.188;2024-02-23T03:15:55;14.40;99.90
32865;DHT22;19219;44.500;11.188;2024-02-23T03:18:21;14.60;99.90
32865;DHT22;19219;44.500;11.188;2024-02-23T03:20:46;14.50;99.90
32865;DHT22;19219;44.500;11.188;2024-02-23T03:23:12;14.50;99.90
32865;DHT22;19219;44.500;11.188;2024-02-23T03:25:38;14.60;99.90
32865;DHT22;19219;44.500;11.188;2024-02-23T03:28:04;14.60;99.90
32865;DHT22;19219;44.500;11.188;2024-02-23T03:30:29;14.60;99.90
32865;DHT22;19219;44.500;11.188;2024-02-23T03:32:55;14.50;99.90
32865;DHT22;19219;44.500;11.188;2024-02-23T03:35:21;14.60;99.90
32865;DHT22;19219;44.500;11.188;2024-02-23T03:37:46;14.60;99.90
32865;DHT22;19219;44.500;11.188;2024-02-23T03:40:12;14.60;99.90
32865;DHT22;19219;44.500;11.188;2024-02-23T03:42:38;14.60;99.90
32865;DHT22;19219;44.500;11.188;2024-02-23T03:45:06;14.60;99.90
32865;DHT22;19219;44.500;11.188;2024-02-23T03:47:31;14.50;99.90
32865;DHT22;19219;44.500;11.188;2024-02-23T03:49:57;14.50;99.90
32865;DHT22;19219;44.500;11.188;2024-02-23T03:52:23;14.40;99.90
32865;DHT22;19219;44.500;11.188;2024-02-23T03:54:48;14.50;99.90
32865;DHT22;19219;44.500;11.188;2024-02-23T03:57:15;14.50;99.90
32865;DHT22;19219;44.500;11.188;2024-02-23T03:59:51;14.50;99.90
32865;DHT22;19219;44.500;11.188;2024-02-23T04:02:19;14.50;99.90
32865;DHT22;19219;44.500;11.188;2024-02-23T04:04:44;14.50;99.90
32865;DHT22;19219;44.500;11.188;2024-02-23T04:07:10;14.50;99.90
32865;DHT22;19219;44.500;11.188;2024-02-23T04:09:37;14.60;99.90
32865;DHT22;19219;44.500;11.188;2024-02-23T04:12:03;14.50;99.90
32865;DHT22;19219;44.500;11.188;2024-02-23T04:14:28;14.50;99.90
32865;DHT22;19219;44.500;11.188;2024-02-23T04:16:54;14.50;99.90
32865;DHT22;19219;44.500;11.188;2024-02-23T04:19:20;14.40;99.90
32865;DHT22;19219;44.500;11.188;2024-02-23T04:21:47;14.50;99.90
32865;DHT22;19219;44.500;11.188;2024-02-23T04:24:13;14.50;99.90
32865;DHT22;19219;44.500;11.188;2024-02-23T04:26:38;14.60;99.90
32865;DHT22;19219;44.500;11.188;2024-02-23T04:29:04;14.60;99.90
32865;DHT22;19219;44.500;11.188;2024-02-23T04:31:30;14.50;99.90
32865;DHT22;19219;44.500;11.188;2024-02-23T04:33:55;14.60;99.90
32865;DHT22;19219;44.500;11.188;2024-02-23T04:36:21;14.60;99.90
32865;DHT22;19219;44.500;11.188;2024-02-23T04:38:47;14.60;99.90
32865;DHT22;19219;44.500;11.188;2024-02-23T04:41:12;14.60;99.90
32865;DHT22;19219;44.500;11.188;2024-02-23T04:43:39;14.60;99.90
32865;DHT22;19219;44.500;11.188;2024-02-23T04:46:06;14.60;99.90
32865;DHT22;19219;44.500;11.188;2024-02-23T04:48:33;14.60;99.90
32865;DHT22;19219;44.500;11.188;2024-02-23T04:50:58;14.60;99.90
32865;DHT22;19219;44.500;11.188;2024-02-23T04:53:24;14.60;99.90
32865;DHT22;19219;44.500;11.188;2024-02-23T04:55:50;14.70;99.90
32865;DHT22;19219;44.500;11.188;2024-02-23T04:58:15;14.80;99.90
32865;DHT22;19219;44.500;11.188;2024-02-23T05:00:42;14.80;99.90
32865;DHT22;19219;44.500;11.188;2024-02-23T05:03:08;14.70;99.90
32865;DHT22;19219;44.500;11.188;2024-02-23T05:05:35;14.70;99.90
32865;DHT22;19219;44.500;11.188;2024-02-23T05:08:02;14.80;99.90
32865;DHT22;19219;44.500;11.188;2024-02-23T05:10:28;14.80;99.90
32865;DHT22;19219;44.500;11.188;2024-02-23T05:12:55;14.80;99.90
32865;DHT22;19219;44.500;11.188;2024-02-23T05:15:20;14.80;99.90
32865;DHT22;19219;44.500;11.188;2024-02-23T05:17:46;14.80;99.90
32865;DHT22;19219;44.500;11.188;2024-02-23T05:20:14;14.80;99.90
32865;DHT22;19219;44.500;11.188;2024-02-23T05:22:40;14.70;99.90
32865;DHT22;19219;44.500;11.188;2024-02-23T05:25:06;14.70;99.90
32865;DHT22;19219;44.500;11.188;2024-02-23T05:27:32;14.70;99.90
32865;DHT22;19219;44.500;11.188;2024-02-23T05:29:58;14.70;99.90
32865;DHT22;19219;44.500;11.188;2024-02-23T05:32:24;14.60;99.90
32865;DHT22;19219;44.500;11.188;2024-02-23T05:34:49;14.60;99.90
32865;DHT22;19219;44.500;11.188;2024-02-23T05:37:18;14.60;99.90
32865;DHT22;19219;44.500;11.188;2024-02-23T05:39:44;14.50;99.90
32865;DHT22;19219;44.500;11.188;2024-02-23T05:42:12;14.50;99.90
32865;DHT22;19219;44.500;11.188;2024-02-23T05:44:38;14.50;99.90
32865;DHT22;19219;44.500;11.188;2024-02-23T05:47:05;14.70;99.90
32865;DHT22;19219;44.500;11.188;2024-02-23T05:49:30;14.60;99.90
32865;DHT22;19219;44.500;11.188;2024-02-23T05:51:56;14.60;99.90
32865;DHT22;19219;44.500;11.188;2024-02-23T05:54:22;14.60;99.90
32865;DHT22;19219;44.500;11.188;2024-02-23T05:56:48;14.50;99.90
32865;DHT22;19219;44.500;11.188;2024-02-23T05:59:15;14.50;99.90
32865;DHT22;19219;44.500;11.188;2024-02-23T06:01:41;14.40;99.90
32865;DHT22;19219;44.500;11.188;2024-02-23T06:04:06;14.60;99.90
32865;DHT22;19219;44.500;11.188;2024-02-23T06:06:32;14.60;99.90
32865;DHT22;19219;44.500;11.188;2024-02-23T06:08:59;14.50;99.90
32865;DHT22;19219;44.500;11.188;2024-02-23T06:11:25;14.50;99.90
32865;DHT22;19219;44.500;11.188;2024-02-23T06:13:53;14.60;99.90
32865;DHT22;19219;44.500;11.188;2024-02-23T06:16:18;14.60;99.90
32865;DHT22;19219;44.500;11.188;2024-02-23T06:18:44;14.50;99.90
32865;DHT22;19219;44.500;11.188;2024-02-23T06:21:17;14.50;99.90
32865;DHT22;19219;44.500;11.188;2024-02-23T06:23:44;14.60;99.90
32865;DHT22;19219;44.500;11.188;2024-02-23T06:26:10;14.60;99.90
32865;DHT22;19219;44.500;11.188;2024-02-23T06:28:36;14.70;99.90
32865;DHT22;19219;44.500;11.188;2024-02-23T06:31:07;14.80;99.90
32865;DHT22;19219;44.500;11.188;2024-02-23T06:33:33;14.80;99.90
32865;DHT22;19219;44.500;11.188;2024-02-23T06:35:59;14.80;99.90
32865;DHT22;19219;44.500;11.188;2024-02-23T06:38:25;14.80;99.90
32865;DHT22;19219;44.500;11.188;2024-02-23T06:40:51;14.80;99.90
32865;DHT22;19219;44.500;11.188;2024-02-23T06:43:17;14.80;99.90
32865;DHT22;19219;44.500;11.188;2024-02-23T06:45:42;14.80;99.90
32865;DHT22;19219;44.500;11.188;2024-02-23T06:48:08;14.80;99.90
32865;DHT22;19219;44.500;11.188;2024-02-23T06:50:35;14.90;99.90
32865;DHT22;19219;44.500;11.188;2024-02-23T06:53:01;14.80;99.90
32865;DHT22;19219;44.500;11.188;2024-02-23T06:55:28;14.80;99.90
32865;DHT22;19219;44.500;11.188;2024-02-23T06:57:54;14.80;99.90
32865;DHT22;19219;44.500;11.188;2024-02-23T07:00:21;14.90;99.90
32865;DHT22;19219;44.500;11.188;2024-02-23T07:02:49;14.90;99.90
32865;DHT22;19219;44.500;11.188;2024-02-23T07:05:15;14.90;99.90
32865;DHT22;19219;44.500;11.188;2024-02-23T07:07:41;14.50;99.90
32865;DHT22;19219;44.500;11.188;2024-02-23T07:10:07;15.00;99.90
32865;DHT22;19219;44.500;11.188;2024-02-23T07:12:34;15.00;99.90
32865;DHT22;19219;44.500;11.188;2024-02-23T07:14:59;15.00;99.90
32865;DHT22;19219;44.500;11.188;2024-02-23T07:17:25;15.00;99.90
32865;DHT22;19219;44.500;11.188;2024-02-23T07:19:51;15.00;99.90
32865;DHT22;19219;44.500;11.188;2024-02-23T07:22:18;15.00;99.90
32865;DHT22;19219;44.500;11.188;2024-02-23T07:24:44;15.00;99.90
32865;DHT22;19219;44.500;11.188;2024-02-23T07:27:10;14.90;99.90
32865;DHT22;19219;44.500;11.188;2024-02-23T07:29:35;15.10;99.90
32865;DHT22;19219;44.500;11.188;2024-02-23T07:32:02;15.20;99.90
32865;DHT22;19219;44.500;11.188;2024-02-23T07:34:27;15.30;99.90
32865;DHT22;19219;44.500;11.188;2024-02-23T07:36:54;15.50;99.90
32865;DHT22;19219;44.500;11.188;2024-02-23T07:39:20;15.60;99.90
32865;DHT22;19219;44.500;11.188;2024-02-23T07:41:46;15.60;99.90
32865;DHT22;19219;44.500;11.188;2024-02-23T07:44:11;15.70;99.90
32865;DHT22;19219;44.500;11.188;2024-02-23T07:46:37;15.70;99.90
32865;DHT22;19219;44.500;11.188;2024-02-23T07:49:04;15.80;99.90
32865;DHT22;19219;44.500;11.188;2024-02-23T07:51:32;15.70;99.90
32865;DHT22;19219;44.500;11.188;2024-02-23T07:53:58;15.70;99.90
32865;DHT22;19219;44.500;11.188;2024-02-23T07:56:23;15.70;99.90
32865;DHT22;19219;44.500;11.188;2024-02-23T07:58:49;15.70;99.90
32865;DHT22;19219;44.500;11.188;2024-02-23T08:01:15;15.70;99.90
32865;DHT22;19219;44.500;11.188;2024-02-23T08:03:41;15.70;99.90
32865;DHT22;19219;44.500;11.188;2024-02-23T08:06:07;15.70;99.90
32865;DHT22;19219;44.500;11.188;2024-02-23T08:08:33;15.80;99.90
32865;DHT22;19219;44.500;11.188;2024-02-23T08:11:01;15.90;99.90
32865;DHT22;19219;44.500;11.188;2024-02-23T08:13:28;15.80;99.90
32865;DHT22;19219;44.500;11.188;2024-02-23T08:15:53;15.70;99.90
32865;DHT22;19219;44.500;11.188;2024-02-23T08:18:19;15.70;99.90
32865;DHT22;19219;44.500;11.188;2024-02-23T08:20:45;15.80;99.90
32865;DHT22;19219;44.500;11.188;2024-02-23T08:23:10;15.80;99.90
32865;DHT22;19219;44.500;11.188;2024-02-23T08:25:36;15.80;99.90
32865;DHT22;19219;44.500;11.188;2024-02-23T08:28:02;15.80;99.90
32865;DHT22;19219;44.500;11.188;2024-02-23T08:30:28;15.80;99.90
32865;DHT22;19219;44.500;11.188;2024-02-23T08:32:54;15.70;99.90
32865;DHT22;19219;44.500;11.188;2024-02-23T08:35:20;15.80;99.90
32865;DHT22;19219;44.500;11.188;2024-02-23T08:37:45;15.90;99.90
32865;DHT22;19219;44.500;11.188;2024-02-23T08:40:11;15.90;99.90
32865;DHT22;19219;44.500;11.188;2024-02-23T08:42:37;15.90;99.90
32865;DHT22;19219;44.500;11.188;2024-02-23T08:45:03;15.90;99.90
32865;DHT22;19219;44.500;11.188;2024-02-23T08:47:30;15.90;99.90
32865;DHT22;19219;44.500;11.188;2024-02-23T08:49:59;15.90;99.90
32865;DHT22;19219;44.500;11.188;2024-02-23T08:52:24;15.80;99.90
32865;DHT22;19219;44.500;11.188;2024-02-23T08:54:51;15.80;99.90
32865;DHT22;19219;44.500;11.188;2024-02-23T08:57:17;15.80;99.90
32865;DHT22;19219;44.500;11.188;2024-02-23T08:59:45;15.80;99.90
32865;DHT22;19219;44.500;11.188;2024-02-23T09:02:11;15.80;99.90
32865;DHT22;19219;44.500;11.188;2024-02-23T09:04:37;15.80;99.90
32865;DHT22;19219;44.500;11.188;2024-02-23T09:07:03;15.80;99.90
32865;DHT22;19219;44.500;11.188;2024-02-23T09:09:29;15.80;99.90
32865;DHT22;19219;44.500;11.188;2024-02-23T09:11:55;15.80;99.90
32865;DHT22;19219;44.500;11.188;2024-02-23T09:14:21;15.80;99.90
32865;DHT22;19219;44.500;11.188;2024-02-23T09:16:47;15.30;99.90
32865;DHT22;19219;44.500;11.188;2024-02-23T09:19:16;14.40;99.90
32865;DHT22;19219;44.500;11.188;2024-02-23T09:21:42;14.10;99.90
32865;DHT22;19219;44.500;11.188;2024-02-23T09:24:08;13.80;99.90
32865;DHT22;19219;44.500;11.188;2024-02-23T09:26:33;13.60;99.90
32865;DHT22;19219;44.500;11.188;2024-02-23T09:28:59;13.60;99.90
32865;DHT22;19219;44.500;11.188;2024-02-23T09:31:25;13.60;99.90
32865;DHT22;19219;44.500;11.188;2024-02-23T09:33:51;13.60;99.90
32865;DHT22;19219;44.500;11.188;2024-02-23T09:36:17;13.70;99.90
32865;DHT22;19219;44.500;11.188;2024-02-23T09:38:43;13.60;99.90
32865;DHT22;19219;44.500;11.188;2024-02-23T09:41:22;13.50;99.90
32865;DHT22;19219;44.500;11.188;2024-02-23T09:43:48;13.50;99.90
32865;DHT22;19219;44.500;11.188;2024-02-23T09:46:15;13.40;99.90
32865;DHT22;19219;44.500;11.188;2024-02-23T09:48:43;13.10;99.90
32865;DHT22;19219;44.500;11.188;2024-02-23T09:51:11;12.90;99.90
32865;DHT22;19219;44.500;11.188;2024-02-23T09:53:38;12.90;99.90
32865;DHT22;19219;44.500;11.188;2024-02-23T09:56:05;13.00;99.90
32865;DHT22;19219;44.500;11.188;2024-02-23T09:58:35;12.80;99.90
32865;DHT22;19219;44.500;11.188;2024-02-23T10:01:04;12.70;99.90
32865;DHT22;19219;44.500;11.188;2024-02-23T10:03:30;12.60;99.90
32865;DHT22;19219;44.500;11.188;2024-02-23T10:05:59;12.60;99.90
32865;DHT22;19219;44.500;11.188;2024-02-23T10:08:30;12.50;99.90
32865;DHT22;19219;44.500;11.188;2024-02-23T10:10:55;12.40;99.90
32865;DHT22;19219;44.500;11.188;2024-02-23T10:13:24;12.40;99.90
32865;DHT22;19219;44.500;11.188;2024-02-23T10:15:53;12.50;99.90
32865;DHT22;19219;44.500;11.188;2024-02-23T10:18:19;12.40;99.90
32865;DHT22;19219;44.500;11.188;2024-02-23T10:20:46;12.20;99.90
32865;DHT22;19219;44.500;11.188;2024-02-23T10:23:12;12.20;99.90
32865;DHT22;19219;44.500;11.188;2024-02-23T10:25:38;12.10;99.90
32865;DHT22;19219;44.500;11.188;2024-02-23T10:28:06;12.10;99.90
32865;DHT22;19219;44.500;11.188;2024-02-23T10:30:32;12.10;99.90
32865;DHT22;19219;44.500;11.188;2024-02-23T10:32:59;12.00;99.90
32865;DHT22;19219;44.500;11.188;2024-02-23T10:35:25;11.90;99.90
32865;DHT22;19219;44.500;11.188;2024-02-23T10:37:53;11.80;99.90
32865;DHT22;19219;44.500;11.188;2024-02-23T10:40:20;11.70;99.90
32865;DHT22;19219;44.500;11.188;2024-02-23T10:42:48;11.70;99.90
32865;DHT22;19219;44.500;11.188;2024-02-23T10:45:18;11.60;99.90
32865;DHT22;19219;44.500;11.188;2024-02-23T10:47:44;11.60;99.90
32865;DHT22;19219;44.500;11.188;2024-02-23T10:50:10;11.60;99.90
32865;DHT22;19219;44.500;11.188;2024-02-23T10:52:41;11.60;99.90
32865;DHT22;19219;44.500;11.188;2024-02-23T10:55:08;11.50;99.90
32865;DHT22;19219;44.500;11.188;2024-02-23T10:57:35;11.50;99.90
32865;DHT22;19219;44.500;11.188;2024-02-23T11:00:01;11.40;99.90
32865;DHT22;19219;44.500;11.188;2024-02-23T11:02:31;11.40;99.90
32865;DHT22;19219;44.500;11.188;2024-02-23T11:04:59;11.30;99.90
32865;DHT22;19219;44.500;11.188;2024-02-23T11:07:25;11.40;99.90
32865;DHT22;19219;44.500;11.188;2024-02-23T11:09:58;11.30;99.90
32865;DHT22;19219;44.500;11.188;2024-02-23T11:12:25;11.30;99.90
32865;DHT22;19219;44.500;11.188;2024-02-23T11:14:51;11.30;99.90
32865;DHT22;19219;44.500;11.188;2024-02-23T11:17:21;11.30;99.90
32865;DHT22;19219;44.500;11.188;2024-02-23T11:19:49;11.30;99.90
32865;DHT22;19219;44.500;11.188;2024-02-23T11:22:24;11.40;99.90
32865;DHT22;19219;44.500;11.188;2024-02-23T11:24:50;11.40;99.90
32865;DHT22;19219;44.500;11.188;2024-02-23T11:27:16;11.30;99.90
32865;DHT22;19219;44.500;11.188;2024-02-23T11:29:47;11.30;99.90
32865;DHT22;19219;44.500;11.188;2024-02-23T11:32:17;11.40;99.90
32865;DHT22;19219;44.500;11.188;2024-02-23T11:34:55;11.30;99.90
32865;DHT22;19219;44.500;11.188;2024-02-23T11:37:22;11.40;99.90
32865;DHT22;19219;44.500;11.188;2024-02-23T11:39:48;11.40;99.90
32865;DHT22;19219;44.500;11.188;2024-02-23T11:42:14;11.40;99.90
32865;DHT22;19219;44.500;11.188;2024-02-23T11:44:40;11.30;99.90
32865;DHT22;19219;44.500;11.188;2024-02-23T11:47:07;11.30;99.90
32865;DHT22;19219;44.500;11.188;2024-02-23T11:49:33;11.40;99.90
32865;DHT22;19219;44.500;11.188;2024-02-23T11:51:59;11.40;99.90
32865;DHT22;19219;44.500;11.188;2024-02-23T11:54:27;11.40;99.90
32865;DHT22;19219;44.500;11.188;2024-02-23T11:56:54;11.30;99.90
32865;DHT22;19219;44.500;11.188;2024-02-23T11:59:20;11.40;99.90
32865;DHT22;19219;44.500;11.188;2024-02-23T12:01:47;11.50;99.90
32865;DHT22;19219;44.500;11.188;2024-02-23T12:04:14;11.50;99.90
32865;DHT22;19219;44.500;11.188;2024-02-23T12:06:40;11.60;99.90
32865;DHT22;19219;44.500;11.188;2024-02-23T12:09:07;11.60;99.90
32865;DHT22;19219;44.500;11.188;2024-02-23T12:11:34;11.60;99.90
32865;DHT22;19219;44.500;11.188;2024-02-23T12:14:00;11.60;99.90
32865;DHT22;19219;44.500;11.188;2024-02-23T12:16:28;11.50;99.90
32865;DHT22;19219;44.500;11.188;2024-02-23T12:18:55;11.60;99.90
32865;DHT22;19219;44.500;11.188;2024-02-23T12:21:21;11.60;99.90
32865;DHT22;19219;44.500;11.188;2024-02-23T12:23:48;11.40;99.90
32865;DHT22;19219;44.500;11.188;2024-02-23T12:26:16;11.40;99.90
32865;DHT22;19219;44.500;11.188;2024-02-23T12:28:43;11.30;99.90
32865;DHT22;19219;44.500;11.188;2024-02-23T12:31:09;11.40;99.90
32865;DHT22;19219;44.500;11.188;2024-02-23T12:33:39;11.40;99.90
32865;DHT22;19219;44.500;11.188;2024-02-23T12:36:06;11.40;99.90
32865;DHT22;19219;44.500;11.188;2024-02-23T12:38:32;11.40;99.90
32865;DHT22;19219;44.500;11.188;2024-02-23T12:40:59;11.60;99.90
32865;DHT22;19219;44.500;11.188;2024-02-23T12:43:25;11.50;99.90
32865;DHT22;19219;44.500;11.188;2024-02-23T12:45:57;11.60;99.90
32865;DHT22;19219;44.500;11.188;2024-02-23T12:48:23;11.80;99.90
32865;DHT22;19219;44.500;11.188;2024-02-23T12:50:50;11.80;99.90
32865;DHT22;19219;44.500;11.188;2024-02-23T12:56:05;11.80;99.90
32865;DHT22;19219;44.500;11.188;2024-02-23T12:58:33;11.70;99.90
32865;DHT22;19219;44.500;11.188;2024-02-23T13:00:59;11.80;99.90
32865;DHT22;19219;44.500;11.188;2024-02-23T13:03:25;11.80;99.90
32865;DHT22;19219;44.500;11.188;2024-02-23T13:05:53;11.80;99.90
32865;DHT22;19219;44.500;11.188;2024-02-23T13:08:19;11.70;99.90
32865;DHT22;19219;44.500;11.188;2024-02-23T13:10:45;11.70;99.90
32865;DHT22;19219;44.500;11.188;2024-02-23T13:13:11;11.50;99.90
32865;DHT22;19219;44.500;11.188;2024-02-23T13:15:38;11.50;99.90
32865;DHT22;19219;44.500;11.188;2024-02-23T13:18:04;11.60;99.90
32865;DHT22;19219;44.500;11.188;2024-02-23T13:20:30;11.60;99.90
32865;DHT22;19219;44.500;11.188;2024-02-23T13:22:56;11.70;99.90
32865;DHT22;19219;44.500;11.188;2024-02-23T13:25:21;11.70;99.90
32865;DHT22;19219;44.500;11.188;2024-02-23T13:27:47;11.70;99.90
32865;DHT22;19219;44.500;11.188;2024-02-23T13:30:13;11.80;99.90
32865;DHT22;19219;44.500;11.188;2024-02-23T13:32:39;11.80;99.90
32865;DHT22;19219;44.500;11.188;2024-02-23T13:35:05;11.70;99.90
32865;DHT22;19219;44.500;11.188;2024-02-23T13:37:32;11.80;99.90
32865;DHT22;19219;44.500;11.188;2024-02-23T13:39:57;11.80;99.90
32865;DHT22;19219;44.500;11.188;2024-02-23T13:42:23;11.90;99.90
32865;DHT22;19219;44.500;11.188;2024-02-23T13:44:49;11.80;99.90
32865;DHT22;19219;44.500;11.188;2024-02-23T13:47:14;11.90;99.90
32865;DHT22;19219;44.500;11.188;2024-02-23T13:49:40;11.90;99.90
32865;DHT22;19219;44.500;11.188;2024-02-23T13:52:06;12.00;99.90
32865;DHT22;19219;44.500;11.188;2024-02-23T13:54:32;11.80;99.90
32865;DHT22;19219;44.500;11.188;2024-02-23T13:56:57;11.80;99.90
32865;DHT22;19219;44.500;11.188;2024-02-23T13:59:23;11.90;99.90
32865;DHT22;19219;44.500;11.188;2024-02-23T14:01:49;11.80;99.90
32865;DHT22;19219;44.500;11.188;2024-02-23T14:04:14;11.80;99.90
32865;DHT22;19219;44.500;11.188;2024-02-23T14:06:40;11.80;99.90
32865;DHT22;19219;44.500;11.188;2024-02-23T14:09:06;11.60;99.90
32865;DHT22;19219;44.500;11.188;2024-02-23T14:11:32;11.70;99.90
32865;DHT22;19219;44.500;11.188;2024-02-23T14:13:59;11.70;99.90
32865;DHT22;19219;44.500;11.188;2024-02-23T14:16:24;11.70;99.90
32865;DHT22;19219;44.500;11.188;2024-02-23T14:18:50;11.80;99.90
32865;DHT22;19219;44.500;11.188;2024-02-23T14:21:16;11.80;99.90
32865;DHT22;19219;44.500;11.188;2024-02-23T14:23:43;11.90;99.90
32865;DHT22;19219;44.500;11.188;2024-02-23T14:26:09;11.90;99.90
32865;DHT22;19219;44.500;11.188;2024-02-23T14:28:35;11.80;99.90
32865;DHT22;19219;44.500;11.188;2024-02-23T14:31:00;11.80;99.90
32865;DHT22;19219;44.500;11.188;2024-02-23T14:33:26;11.90;99.90
32865;DHT22;19219;44.500;11.188;2024-02-23T14:35:52;11.90;99.90
32865;DHT22;19219;44.500;11.188;2024-02-23T14:38:17;11.90;99.90
32865;DHT22;19219;44.500;11.188;2024-02-23T14:40:43;11.80;99.90
32865;DHT22;19219;44.500;11.188;2024-02-23T14:43:09;11.80;99.90
32865;DHT22;19219;44.500;11.188;2024-02-23T14:45:38;11.70;99.90
32865;DHT22;19219;44.500;11.188;2024-02-23T14:48:04;11.70;99.90
32865;DHT22;19219;44.500;11.188;2024-02-23T14:50:30;11.70;99.90
32865;DHT22;19219;44.500;11.188;2024-02-23T14:52:55;11.70;99.90
32865;DHT22;19219;44.500;11.188;2024-02-23T14:55:21;11.80;99.90
32865;DHT22;19219;44.500;11.188;2024-02-23T14:57:47;11.80;99.90
32865;DHT22;19219;44.500;11.188;2024-02-23T15:00:13;11.70;99.90
32865;DHT22;19219;44.500;11.188;2024-02-23T15:02:39;11.60;99.90
32865;DHT22;19219;44.500;11.188;2024-02-23T15:05:05;11.70;99.90
32865;DHT22;19219;44.500;11.188;2024-02-23T15:07:32;11.60;99.90
32865;DHT22;19219;44.500;11.188;2024-02-23T15:09:58;11.50;99.90
32865;DHT22;19219;44.500;11.188;2024-02-23T15:12:25;11.40;99.90